Time;durP1;ratioP1;P1;durP2;ratioP2;P2;SDS_P1;SDS_P2;PMS_P1;PMS_P2;Temp;Humidity;BMP_temperature;BMP_pressure;BME280_temperature;BME280_humidity;BME280_pressure;Samples;Min_cycle;Max_cycle;Signal;HPM_P1;HPM_P2
2023/07/17 00:01:44;;;;;;;20.45;19.20;;;18.40;81.50;;;;;;5105440;27;20031;-72
2023/07/17 00:04:10;;;;;;;19.42;18.13;;;18.40;81.40;;;;;;5087366;28;20508;-72
2023/07/17 00:06:36;;;;;;;20.25;18.92;;;18.40;81.80;;;;;;5104813;28;20032;-73
2023/07/17 00:09:02;;;;;;;19.02;17.98;;;18.40;81.50;;;;;;5105992;28;21278;-72
2023/07/17 00:11:28;;;;;;;20.13;18.67;;;18.40;80.80;;;;;;5099977;28;20393;-73
2023/07/17 00:13:54;;;;;;;18.95;17.80;;;18.40;81.50;;;;;;5104801;28;20027;-73
2023/07/17 00:16:20;;;;;;;19.25;18.23;;;18.40;81.70;;;;;;5104774;28;20031;-73
2023/07/17 00:18:46;;;;;;;18.20;17.00;;;18.30;81.30;;;;;;5087503;28;20028;-73
2023/07/17 00:21:11;;;;;;;21.80;20.65;;;18.30;82.90;;;;;;5094929;28;20028;-73
2023/07/17 00:23:37;;;;;;;23.48;21.90;;;18.20;83.60;;;;;;5088197;28;20035;-72
2023/07/17 00:26:04;;;;;;;29.38;27.77;;;18.30;86.10;;;;;;5106262;28;20032;-73
2023/07/17 00:28:29;;;;;;;33.90;32.10;;;19.70;95.50;;;;;;5105510;28;20040;-73
2023/07/17 00:30:55;;;;;;;33.40;31.70;;;19.60;98.20;;;;;;5102232;28;20032;-73
2023/07/17 00:33:21;;;;;;;38.28;36.50;;;19.70;99.50;;;;;;5093792;28;20029;-73
2023/07/17 00:35:46;;;;;;;46.35;44.17;;;19.60;99.90;;;;;;5113999;28;20025;-73
2023/07/17 00:38:12;;;;;;;28.33;26.60;;;19.50;99.90;;;;;;5095529;28;20066;-72
2023/07/17 00:40:41;;;;;;;41.60;39.40;;;19.40;99.90;;;;;;5114223;28;20036;-73
2023/07/17 00:43:11;;;;;;;30.95;28.77;;;19.40;99.90;;;;;;5110703;28;20489;-73
2023/07/17 00:45:41;;;;;;;34.38;32.50;;;19.30;99.90;;;;;;5115551;27;20405;-72
2023/07/17 00:48:08;;;;;;;47.70;45.30;;;19.20;99.90;;;;;;5116256;28;20381;-73
2023/07/17 00:50:34;;;;;;;58.35;55.58;;;19.30;99.90;;;;;;5112267;28;20039;-72
2023/07/17 00:53:01;;;;;;;58.50;55.70;;;19.30;99.90;;;;;;5111718;28;20138;-73
2023/07/17 00:55:27;;;;;;;62.03;58.70;;;19.20;99.90;;;;;;5091372;28;20568;-73
2023/07/17 00:57:53;;;;;;;52.88;49.70;;;19.30;99.90;;;;;;5090071;28;20115;-73
2023/07/17 01:00:20;;;;;;;59.72;56.53;;;19.30;99.90;;;;;;5094024;28;20038;-73
2023/07/17 01:02:49;;;;;;;70.50;67.10;;;19.20;99.90;;;;;;5112578;28;20393;-73
2023/07/17 01:05:15;;;;;;;72.70;69.03;;;19.20;99.90;;;;;;5108246;28;20529;-73
2023/07/17 01:07:40;;;;;;;69.88;66.70;;;19.40;99.90;;;;;;5074199;28;20028;-73
2023/07/17 01:10:08;;;;;;;62.95;60.22;;;19.30;99.90;;;;;;5112756;28;20114;-73
2023/07/17 01:12:35;;;;;;;103.60;99.05;;;19.30;99.90;;;;;;5111236;28;20492;-73
2023/07/17 01:15:01;;;;;;;131.68;125.75;;;19.20;99.90;;;;;;5113456;27;20023;-73
2023/07/17 01:17:26;;;;;;;91.00;87.00;;;19.30;99.90;;;;;;5111597;28;20152;-73
2023/07/17 01:19:52;;;;;;;98.07;93.85;;;19.30;99.90;;;;;;5112928;28;20030;-73
2023/07/17 01:22:29;;;;;;;149.63;143.75;;;19.20;99.90;;;;;;5110523;28;20036;-73
2023/07/17 01:24:54;;;;;;;98.05;93.88;;;19.10;99.90;;;;;;5110089;28;20028;-73
2023/07/17 01:27:20;;;;;;;83.72;79.95;;;19.20;99.90;;;;;;5114494;28;20393;-73
2023/07/17 01:29:46;;;;;;;81.30;77.55;;;19.10;99.90;;;;;;5108678;27;20039;-73
2023/07/17 01:32:12;;;;;;;94.05;90.10;;;19.10;99.90;;;;;;5111750;28;20489;-73
2023/07/17 01:34:38;;;;;;;146.48;140.90;;;19.00;99.90;;;;;;5090963;28;20034;-73
2023/07/17 01:37:05;;;;;;;110.75;106.32;;;19.00;99.90;;;;;;5111897;28;20153;-73
2023/07/17 01:39:30;;;;;;;145.98;140.18;;;19.00;99.90;;;;;;5110469;28;20385;-73
2023/07/17 01:41:56;;;;;;;124.45;119.57;;;18.90;99.90;;;;;;5107982;28;20045;-73
2023/07/17 01:44:22;;;;;;;138.10;132.60;;;18.80;99.90;;;;;;5110795;27;20549;-73
2023/07/17 01:46:47;;;;;;;177.75;171.05;;;18.80;99.90;;;;;;5105713;28;20038;-73
2023/07/17 01:49:13;;;;;;;173.25;166.40;;;18.70;99.90;;;;;;5107469;28;20028;-72
2023/07/17 01:51:39;;;;;;;161.35;155.10;;;18.60;99.90;;;;;;5089535;28;20027;-73
2023/07/17 01:54:04;;;;;;;149.80;144.07;;;18.60;99.90;;;;;;5108151;28;20028;-73
2023/07/17 01:56:30;;;;;;;141.20;135.68;;;18.50;99.90;;;;;;5093081;28;20028;-73
2023/07/17 01:58:55;;;;;;;155.23;148.82;;;18.60;99.90;;;;;;5106225;27;20029;-72
2023/07/17 02:01:21;;;;;;;138.35;132.73;;;18.70;99.90;;;;;;5090050;28;20032;-73
2023/07/17 02:03:47;;;;;;;151.02;145.32;;;18.70;99.90;;;;;;5105787;28;20034;-73
2023/07/17 02:06:12;;;;;;;129.40;123.97;;;18.60;99.90;;;;;;5091764;28;20462;-73
2023/07/17 02:08:38;;;;;;;134.98;129.77;;;18.50;99.90;;;;;;5107348;28;20124;-72
2023/07/17 02:11:04;;;;;;;136.07;130.65;;;18.50;99.90;;;;;;5105708;28;20035;-73
2023/07/17 02:13:30;;;;;;;143.48;137.80;;;18.40;99.90;;;;;;5090357;27;20162;-73
2023/07/17 02:15:56;;;;;;;138.57;133.07;;;18.50;99.90;;;;;;5109429;28;20097;-73
2023/07/17 02:18:22;;;;;;;146.63;140.77;;;18.40;99.90;;;;;;5104668;28;20046;-73
2023/07/17 02:20:49;;;;;;;126.60;121.57;;;18.40;99.90;;;;;;5106751;28;20027;-73
2023/07/17 02:23:15;;;;;;;128.57;123.28;;;18.30;99.90;;;;;;5104926;28;20073;-73
2023/07/17 02:25:41;;;;;;;132.20;126.78;;;18.10;99.90;;;;;;5108194;28;20129;-73
2023/07/17 02:28:07;;;;;;;117.15;112.30;;;18.00;99.90;;;;;;5110084;27;20387;-72
2023/07/17 02:30:33;;;;;;;125.93;120.95;;;17.80;99.90;;;;;;5108629;28;20066;-73
2023/07/17 02:32:58;;;;;;;163.82;157.55;;;17.80;99.90;;;;;;5105976;28;20754;-73
2023/07/17 02:35:24;;;;;;;119.22;113.88;;;17.70;99.90;;;;;;5104095;28;20031;-73
2023/07/17 02:37:50;;;;;;;91.05;84.70;;;17.60;99.90;;;;;;5105908;28;20524;-73
2023/07/17 02:40:17;;;;;;;83.07;79.20;;;19.20;99.90;;;;;;5107565;28;20038;-73
2023/07/17 02:42:42;;;;;;;95.45;91.22;;;19.10;99.90;;;;;;5106536;28;20031;-73
2023/07/17 02:45:08;;;;;;;90.28;86.05;;;19.20;99.90;;;;;;5106238;28;20027;-73
2023/07/17 02:47:34;;;;;;;222.85;212.00;;;19.30;99.90;;;;;;5105259;28;20038;-73
2023/07/17 02:50:00;;;;;;;107.20;102.25;;;19.30;99.90;;;;;;5089959;28;20031;-74
2023/07/17 02:52:25;;;;;;;160.45;153.95;;;19.00;99.90;;;;;;5103714;28;20493;-74
2023/07/17 02:54:51;;;;;;;273.00;239.18;;;18.70;99.90;;;;;;5087572;28;20123;-77
2023/07/17 02:57:17;;;;;;;159.35;148.45;;;17.40;99.90;;;;;;5105804;28;20063;-76
2023/07/17 02:59:42;;;;;;;118.85;113.80;;;16.20;99.90;;;;;;5087935;28;20039;-76
2023/07/17 03:02:08;;;;;;;229.80;220.05;;;16.30;99.90;;;;;;5108465;28;20090;-77
2023/07/17 03:04:34;;;;;;;267.15;256.65;;;16.30;99.90;;;;;;5107836;28;20452;-76
2023/07/17 03:07:00;;;;;;;185.70;177.85;;;16.40;99.90;;;;;;5104397;28;20460;-77
2023/07/17 03:09:27;;;;;;;307.50;289.67;;;16.70;99.90;;;;;;5106955;28;20039;-76
2023/07/17 03:11:52;;;;;;;289.73;272.42;;;16.90;99.90;;;;;;5091746;27;20027;-77
2023/07/17 03:14:18;;;;;;;277.10;265.33;;;16.90;99.90;;;;;;5110424;27;20059;-77
2023/07/17 03:16:44;;;;;;;282.90;270.25;;;17.00;99.90;;;;;;5106095;28;20413;-78
2023/07/17 03:19:10;;;;;;;257.55;245.85;;;16.70;99.90;;;;;;5104701;28;20147;-75
2023/07/17 03:21:35;;;;;;;219.02;209.75;;;16.80;99.90;;;;;;5101648;28;20106;-77
2023/07/17 03:24:01;;;;;;;204.82;196.10;;;16.90;99.90;;;;;;5104911;28;20031;-76
2023/07/17 03:26:27;;;;;;;192.40;184.02;;;17.10;99.90;;;;;;5104777;28;20088;-76
2023/07/17 03:28:53;;;;;;;207.85;199.27;;;17.10;99.90;;;;;;5090082;28;20187;-76
2023/07/17 03:31:19;;;;;;;231.02;221.70;;;17.10;99.90;;;;;;5102171;28;20513;-76
2023/07/17 03:33:44;;;;;;;199.30;191.32;;;17.10;99.90;;;;;;5105306;28;20062;-76
2023/07/17 03:36:10;;;;;;;206.65;198.10;;;17.00;99.90;;;;;;5103018;28;20031;-76
2023/07/17 03:38:35;;;;;;;187.68;179.55;;;16.90;99.90;;;;;;5101483;28;20051;-77
2023/07/17 03:41:02;;;;;;;183.25;175.65;;;16.90;99.90;;;;;;5105406;28;20082;-75
2023/07/17 03:43:28;;;;;;;162.82;155.27;;;16.80;99.90;;;;;;5105584;28;20031;-77
2023/07/17 03:45:54;;;;;;;189.30;181.57;;;16.90;99.90;;;;;;5104353;28;20034;-76
2023/07/17 03:48:19;;;;;;;170.88;161.55;;;16.80;99.90;;;;;;5102478;28;20042;-76
2023/07/17 03:50:47;;;;;;;145.77;138.85;;;16.80;99.90;;;;;;5089708;28;20111;-76
2023/07/17 03:53:13;;;;;;;163.05;155.45;;;16.90;99.90;;;;;;5105581;28;20051;-76
2023/07/17 03:55:38;;;;;;;183.02;174.18;;;16.90;99.90;;;;;;5107770;28;20059;-75
2023/07/17 03:58:07;;;;;;;176.13;168.30;;;16.90;99.90;;;;;;5103285;27;20027;-76
2023/07/17 04:00:32;;;;;;;165.85;158.27;;;16.90;99.90;;;;;;5101470;28;20042;-75
2023/07/17 04:02:58;;;;;;;216.13;205.93;;;17.00;99.90;;;;;;5106970;28;20168;-76
2023/07/17 04:05:24;;;;;;;196.88;186.60;;;16.90;99.90;;;;;;5103157;28;20038;-76
2023/07/17 04:07:50;;;;;;;180.82;172.02;;;17.00;99.90;;;;;;5100526;28;20040;-75
2023/07/17 04:10:17;;;;;;;209.35;200.30;;;16.90;99.90;;;;;;5099840;28;20307;-76
2023/07/17 04:12:42;;;;;;;215.70;206.35;;;17.00;99.90;;;;;;5102082;28;20038;-75
2023/07/17 04:15:09;;;;;;;220.85;210.57;;;17.10;99.90;;;;;;5107948;28;20371;-76
2023/07/17 04:17:34;;;;;;;210.15;201.05;;;17.00;99.90;;;;;;5098359;28;20035;-75
2023/07/17 04:20:00;;;;;;;202.98;193.98;;;16.80;99.90;;;;;;5105130;28;20389;-74
2023/07/17 04:22:26;;;;;;;198.30;189.52;;;16.80;99.90;;;;;;5104668;28;20035;-74
2023/07/17 04:24:51;;;;;;;211.45;201.93;;;16.80;99.90;;;;;;5105804;28;20484;-81
2023/07/17 04:27:17;;;;;;;196.65;188.43;;;16.80;99.90;;;;;;5103997;28;20032;-76
2023/07/17 04:29:43;;;;;;;208.40;198.98;;;16.90;99.90;;;;;;5105980;28;20039;-75
2023/07/17 04:32:09;;;;;;;202.93;194.13;;;16.70;99.90;;;;;;5087489;28;20568;-76
2023/07/17 04:34:34;;;;;;;206.80;198.10;;;16.70;99.90;;;;;;5099227;28;20544;-75
2023/07/17 04:37:00;;;;;;;199.40;191.10;;;16.70;99.90;;;;;;5101292;28;20088;-76
2023/07/17 04:39:29;;;;;;;217.05;207.68;;;16.80;99.90;;;;;;5102669;28;20024;-76
2023/07/17 04:41:56;;;;;;;187.82;180.10;;;16.70;99.90;;;;;;5105763;28;20066;-76
2023/07/17 04:44:21;;;;;;;195.05;185.95;;;16.60;99.90;;;;;;5103621;28;20048;-76
2023/07/17 04:46:47;;;;;;;194.38;185.70;;;16.40;99.90;;;;;;5086515;28;20558;-77
2023/07/17 04:49:13;;;;;;;188.05;180.00;;;16.50;99.90;;;;;;5104486;28;20040;-76
2023/07/17 04:51:38;;;;;;;153.70;147.10;;;16.40;99.90;;;;;;5101448;28;20524;-77
2023/07/17 04:54:04;;;;;;;165.48;158.68;;;16.30;99.90;;;;;;5102963;28;20032;-75
2023/07/17 04:56:30;;;;;;;160.95;153.88;;;16.40;99.90;;;;;;5102987;28;20054;-76
2023/07/17 04:58:57;;;;;;;146.23;140.15;;;16.40;99.90;;;;;;5092770;28;20032;-76
2023/07/17 05:01:22;;;;;;;106.30;101.85;;;16.30;99.90;;;;;;5102096;28;20044;-75
2023/07/17 05:03:48;;;;;;;131.45;125.43;;;16.20;99.90;;;;;;5107917;28;20084;-76
2023/07/17 05:06:14;;;;;;;127.93;122.38;;;16.10;99.90;;;;;;5105631;28;20138;-73
2023/07/17 05:08:39;;;;;;;161.57;153.70;;;16.10;99.90;;;;;;5111078;28;20051;-74
2023/07/17 05:11:05;;;;;;;163.85;156.88;;;16.10;99.90;;;;;;5102569;28;20057;-72
2023/07/17 05:13:31;;;;;;;141.40;135.18;;;16.20;99.90;;;;;;5088081;28;20032;-73
2023/07/17 05:15:57;;;;;;;155.35;148.80;;;16.20;99.90;;;;;;5107532;28;20032;-73
2023/07/17 05:18:22;;;;;;;118.90;113.95;;;16.10;99.90;;;;;;5102939;28;20131;-73
2023/07/17 05:20:50;;;;;;;116.13;111.50;;;16.10;99.90;;;;;;5110308;28;20035;-72
2023/07/17 05:23:16;;;;;;;173.43;166.70;;;16.20;99.90;;;;;;5111376;27;20035;-71
2023/07/17 05:25:54;;;;;;;84.03;79.97;;;16.60;99.90;;;;;;5107070;28;20028;-71
2023/07/17 05:28:20;;;;;;;72.40;67.72;;;16.60;99.90;;;;;;5108006;28;20057;-73
2023/07/17 05:30:52;;;;;;;155.57;149.35;;;16.60;99.90;;;;;;5087764;28;20047;-79
2023/07/17 05:33:17;;;;;;;;;;;17.00;99.90;;;;;;5085232;28;20022;-77
2023/07/17 05:35:43;;;;;;;46.75;44.00;;;16.80;99.90;;;;;;5106567;28;19916;-78
2023/07/17 05:38:09;;;;;;;49.85;47.25;;;16.60;99.90;;;;;;5087675;28;20693;-80
2023/07/17 05:40:36;;;;;;;60.28;57.47;;;16.70;99.90;;;;;;5092627;28;20405;-74
2023/07/17 05:43:02;;;;;;;99.65;95.13;;;16.90;99.90;;;;;;5091202;28;20509;-77
2023/07/17 05:45:28;;;;;;;47.05;44.50;;;17.20;99.90;;;;;;5091645;28;20452;-76
2023/07/17 05:47:53;;;;;;;53.17;50.42;;;17.00;99.90;;;;;;5093385;28;20035;-73
2023/07/17 05:50:19;;;;;;;52.90;50.15;;;17.30;99.90;;;;;;5107887;28;20512;-75
2023/07/17 05:52:44;;;;;;;65.45;62.45;;;17.20;99.90;;;;;;5106473;28;20031;-76
2023/07/17 05:55:11;;;;;;;48.47;45.95;;;17.50;99.90;;;;;;5090530;28;20430;-74
2023/07/17 05:57:36;;;;;;;47.72;45.22;;;17.50;99.90;;;;;;5108317;28;20027;-75
2023/07/17 06:00:03;;;;;;;35.97;33.70;;;17.40;99.90;;;;;;5089598;28;20024;-74
2023/07/17 06:02:29;;;;;;;31.38;28.73;;;17.20;99.90;;;;;;5107230;28;20113;-75
2023/07/17 06:04:55;;;;;;;38.85;36.55;;;17.10;99.90;;;;;;5109000;28;20036;-74
2023/07/17 06:07:20;;;;;;;39.83;37.05;;;17.40;99.90;;;;;;5091051;28;20039;-76
2023/07/17 06:09:46;;;;;;;39.92;37.75;;;17.50;99.90;;;;;;5106317;28;20039;-77
2023/07/17 06:12:12;;;;;;;38.72;36.85;;;17.60;99.90;;;;;;5106151;27;20036;-76
2023/07/17 06:14:38;;;;;;;41.55;39.35;;;17.70;99.90;;;;;;5103517;28;20039;-77
2023/07/17 06:17:04;;;;;;;40.33;38.42;;;17.80;99.90;;;;;;5105948;28;20063;-76
2023/07/17 06:19:30;;;;;;;45.33;42.55;;;17.90;99.90;;;;;;5108775;28;20483;-76
2023/07/17 06:21:56;;;;;;;36.17;34.00;;;17.80;99.80;;;;;;5106257;28;20067;-76
2023/07/17 06:24:21;;;;;;;42.85;40.17;;;17.90;99.90;;;;;;5108157;28;20062;-76
2023/07/17 06:26:47;;;;;;;42.40;39.60;;;18.10;99.90;;;;;;5090187;28;20482;-75
2023/07/17 06:29:12;;;;;;;47.80;45.15;;;18.30;98.40;;;;;;5085649;28;20517;-76
2023/07/17 06:31:38;;;;;;;44.78;42.28;;;18.50;98.20;;;;;;5107177;28;20027;-76
2023/07/17 06:34:05;;;;;;;38.05;35.65;;;18.60;95.10;;;;;;5108482;28;20491;-77
2023/07/17 06:36:31;;;;;;;44.92;42.53;;;18.70;93.70;;;;;;5104274;28;20130;-76
2023/07/17 06:38:57;;;;;;;36.25;33.97;;;18.80;93.50;;;;;;5089276;28;20119;-76
2023/07/17 06:41:22;;;;;;;37.47;34.58;;;19.00;92.60;;;;;;5108538;28;20044;-76
2023/07/17 06:43:48;;;;;;;36.65;34.33;;;19.10;92.50;;;;;;5105828;27;20424;-78
2023/07/17 06:46:14;;;;;;;34.10;32.22;;;19.20;92.00;;;;;;5108088;28;20046;-76
2023/07/17 06:48:41;;;;;;;27.40;25.65;;;19.20;91.60;;;;;;5106591;28;20028;-76
2023/07/17 06:51:06;;;;;;;29.77;28.05;;;19.50;90.60;;;;;;5085829;28;20081;-76
2023/07/17 06:53:32;;;;;;;32.97;30.95;;;19.60;90.00;;;;;;5075777;28;20035;-75
2023/07/17 06:56:03;;;;;;;31.23;29.48;;;19.90;90.10;;;;;;5107106;28;20027;-76
2023/07/17 06:58:29;;;;;;;24.38;22.92;;;20.50;88.20;;;;;;5102378;28;20526;-76
2023/07/17 07:00:59;;;;;;;22.80;21.30;;;20.70;84.70;;;;;;5076264;28;20039;-76
2023/07/17 07:03:26;;;;;;;23.92;22.40;;;20.50;80.30;;;;;;5106445;28;20034;-77
2023/07/17 07:06:00;;;;;;;27.20;25.50;;;20.70;81.30;;;;;;5105838;28;20497;-76
2023/07/17 07:08:27;;;;;;;32.42;30.52;;;20.50;81.00;;;;;;5105914;28;20047;-77
2023/07/17 07:10:55;;;;;;;22.83;21.52;;;20.50;85.40;;;;;;5107424;28;20112;-77
2023/07/17 07:13:21;;;;;;;26.38;24.80;;;20.30;82.80;;;;;;5107737;28;20034;-76
2023/07/17 07:15:48;;;;;;;24.33;23.02;;;20.20;82.20;;;;;;5103302;28;20027;-77
2023/07/17 07:18:14;;;;;;;20.38;18.83;;;20.30;82.10;;;;;;5086972;28;20702;-76
2023/07/17 07:20:40;;;;;;;21.80;20.45;;;20.50;80.40;;;;;;5108258;28;20493;-76
2023/07/17 07:23:06;;;;;;;25.80;23.55;;;20.80;80.00;;;;;;5108615;28;20046;-76
2023/07/17 07:25:32;;;;;;;24.45;22.83;;;21.00;75.30;;;;;;5088376;28;20043;-76
2023/07/17 07:28:00;;;;;;;19.15;17.85;;;21.00;80.00;;;;;;5090850;28;20047;-78
2023/07/17 07:30:26;;;;;;;18.17;16.75;;;20.90;78.90;;;;;;5103719;28;20032;-76
2023/07/17 07:32:52;;;;;;;23.02;21.52;;;20.70;76.80;;;;;;5107223;28;20070;-77
2023/07/17 07:35:18;;;;;;;16.65;15.45;;;20.80;78.70;;;;;;5106085;28;20043;-76
2023/07/17 07:37:43;;;;;;;18.00;16.63;;;20.70;74.70;;;;;;5105242;28;20036;-77
2023/07/17 07:40:11;;;;;;;18.00;16.50;;;20.60;73.50;;;;;;5107548;28;20511;-77
2023/07/17 07:42:38;;;;;;;20.27;18.70;;;20.90;70.60;;;;;;5085404;28;20046;-77
2023/07/17 07:45:04;;;;;;;17.50;16.50;;;21.60;73.00;;;;;;5107282;28;20036;-77
2023/07/17 07:47:30;;;;;;;17.42;16.13;;;21.80;69.20;;;;;;5107081;28;20055;-76
2023/07/17 07:49:56;;;;;;;18.48;17.13;;;21.90;65.60;;;;;;5101068;28;20124;-77
2023/07/17 07:52:22;;;;;;;17.00;15.88;;;22.10;69.00;;;;;;5103793;28;20036;-76
2023/07/17 07:54:47;;;;;;;18.40;16.85;;;22.30;63.60;;;;;;5088246;28;20035;-77
2023/07/17 07:57:13;;;;;;;19.95;18.35;;;22.30;63.80;;;;;;5087323;28;20541;-76
2023/07/17 07:59:39;;;;;;;17.00;15.90;;;22.30;69.20;;;;;;5107548;28;20158;-77
2023/07/17 08:02:05;;;;;;;16.90;15.70;;;22.10;66.10;;;;;;5089430;28;20485;-76
2023/07/17 08:04:30;;;;;;;16.13;14.95;;;21.80;61.70;;;;;;5089748;28;20413;-76
2023/07/17 08:06:56;;;;;;;18.00;16.58;;;21.60;61.50;;;;;;5104404;28;20384;-77
2023/07/17 08:09:22;;;;;;;16.38;15.32;;;22.10;62.60;;;;;;5103268;28;20114;-77
2023/07/17 08:11:48;;;;;;;16.73;15.50;;;22.20;60.60;;;;;;5106986;28;20042;-76
2023/07/17 08:14:14;;;;;;;20.42;18.88;;;22.60;56.20;;;;;;5105960;28;20110;-76
2023/07/17 08:16:40;;;;;;;17.23;16.17;;;22.50;62.70;;;;;;5086563;28;20043;-76
2023/07/17 08:19:06;;;;;;;17.10;15.55;;;23.20;57.60;;;;;;5105130;28;20385;-77
2023/07/17 08:21:31;;;;;;;15.75;14.60;;;23.50;55.90;;;;;;5105143;28;20112;-77
2023/07/17 08:23:58;;;;;;;15.98;14.85;;;23.10;54.90;;;;;;5106207;28;20028;-77
2023/07/17 08:26:24;;;;;;;15.88;14.52;;;22.90;54.40;;;;;;5090533;28;20382;-76
2023/07/17 08:28:50;;;;;;;14.77;13.98;;;22.90;55.40;;;;;;5057278;28;20069;-76
2023/07/17 08:31:16;;;;;;;17.00;15.70;;;22.90;56.00;;;;;;5102438;28;20119;-76
2023/07/17 08:33:41;;;;;;;17.30;16.10;;;23.30;54.90;;;;;;5103329;28;20026;-75
2023/07/17 08:36:07;;;;;;;16.00;14.73;;;23.80;51.50;;;;;;5072362;28;20039;-77
2023/07/17 08:38:33;;;;;;;16.42;15.27;;;23.70;57.80;;;;;;5102097;28;20044;-76
2023/07/17 08:40:59;;;;;;;17.20;16.10;;;24.00;54.50;;;;;;5102553;28;20031;-76
2023/07/17 08:43:26;;;;;;;15.40;14.40;;;23.80;53.60;;;;;;5087196;28;20036;-77
2023/07/17 08:45:52;;;;;;;16.23;15.00;;;23.80;55.80;;;;;;5105699;28;20053;-77
2023/07/17 08:48:19;;;;;;;16.58;15.52;;;23.90;55.70;;;;;;5100644;28;20503;-76
2023/07/17 08:50:45;;;;;;;16.52;15.27;;;23.80;52.90;;;;;;5098755;28;20040;-76
2023/07/17 08:53:12;;;;;;;17.92;16.52;;;23.50;54.80;;;;;;5101790;28;20129;-76
2023/07/17 08:55:37;;;;;;;17.02;15.80;;;23.70;52.10;;;;;;5085542;28;20023;-77
2023/07/17 08:58:04;;;;;;;16.05;14.98;;;23.60;53.90;;;;;;5111020;28;20470;-77
2023/07/17 09:00:33;;;;;;;15.23;14.13;;;23.90;57.20;;;;;;5109461;28;20110;-77
2023/07/17 09:02:58;;;;;;;16.73;15.00;;;23.90;55.50;;;;;;5111192;28;20023;-76
2023/07/17 09:05:24;;;;;;;15.82;14.55;;;24.20;58.60;;;;;;5094216;28;20032;-77
2023/07/17 09:07:50;;;;;;;17.88;16.60;;;24.10;53.40;;;;;;5109393;28;20111;-77
2023/07/17 09:10:19;;;;;;;16.23;15.00;;;24.00;49.20;;;;;;5108598;28;20041;-76
2023/07/17 09:12:57;;;;;;;16.85;15.50;;;24.30;51.70;;;;;;5092777;28;20428;-76
2023/07/17 09:15:26;;;;;;;16.90;15.68;;;23.80;51.50;;;;;;5106026;28;20028;-78
2023/07/17 09:17:52;;;;;;;16.38;15.38;;;24.00;51.30;;;;;;5090767;28;20035;-77
2023/07/17 09:20:19;;;;;;;16.35;15.18;;;24.40;49.00;;;;;;5109123;28;20030;-76
2023/07/17 09:22:45;;;;;;;17.52;16.13;;;23.90;54.80;;;;;;5110153;28;20743;-77
2023/07/17 09:25:13;;;;;;;16.73;15.43;;;23.70;56.60;;;;;;5108928;27;20557;-77
2023/07/17 09:27:47;;;;;;;17.42;16.33;;;24.50;52.00;;;;;;5107712;28;20035;-77
2023/07/17 09:30:14;;;;;;;32.53;29.65;;;24.70;51.30;;;;;;5086497;28;20115;-77
2023/07/17 09:32:41;;;;;;;17.33;16.30;;;24.30;44.60;;;;;;5105456;28;20047;-76
2023/07/17 09:35:08;;;;;;;19.65;18.35;;;24.40;49.10;;;;;;5088006;28;20036;-77
2023/07/17 09:37:35;;;;;;;17.67;16.27;;;25.20;46.40;;;;;;5108554;27;20094;-75
2023/07/17 09:40:07;;;;;;;18.63;17.52;;;24.70;47.70;;;;;;5106884;27;20106;-77
2023/07/17 09:42:33;;;;;;;23.15;21.95;;;24.60;45.30;;;;;;5108691;28;20626;-76
2023/07/17 09:45:01;;;;;;;22.45;20.95;;;24.60;44.10;;;;;;5088876;28;20461;-76
2023/07/17 09:47:26;;;;;;;27.65;26.23;;;24.90;45.20;;;;;;5091893;28;20122;-77
2023/07/17 09:49:54;;;;;;;19.15;17.95;;;24.30;44.40;;;;;;5104551;28;20500;-77
2023/07/17 09:52:20;;;;;;;18.02;16.67;;;24.80;47.90;;;;;;5090266;28;20047;-77
2023/07/17 09:54:46;;;;;;;20.45;19.15;;;25.10;46.50;;;;;;5107299;27;20396;-77
2023/07/17 09:57:26;;;;;;;24.17;22.98;;;25.60;43.70;;;;;;5108647;28;20035;-76
2023/07/17 10:00:19;;;;;;;22.17;20.88;;;25.80;43.60;;;;;;5111300;28;20039;-76
2023/07/17 10:02:56;;;;;;;27.35;25.88;;;26.00;43.10;;;;;;5107342;28;20177;-76
2023/07/17 10:05:22;;;;;;;30.73;29.08;;;26.50;44.70;;;;;;5102722;28;20077;-77
2023/07/17 10:07:48;;;;;;;27.60;26.08;;;26.80;41.00;;;;;;5089031;28;21090;-77
2023/07/17 10:10:14;;;;;;;23.17;21.83;;;26.00;42.50;;;;;;5105213;28;20166;-77
2023/07/17 10:12:40;;;;;;;23.58;21.77;;;26.20;41.70;;;;;;5086782;28;20143;-76
2023/07/17 10:15:08;;;;;;;30.38;28.48;;;25.90;40.50;;;;;;5107467;28;20035;-76
2023/07/17 10:17:36;;;;;;;28.95;27.42;;;25.20;43.90;;;;;;5106541;28;20126;-76
2023/07/17 10:20:07;;;;;;;31.05;29.23;;;25.50;42.80;;;;;;5107694;28;20028;-79
2023/07/17 10:22:43;;;;;;;23.40;22.02;;;25.60;42.60;;;;;;5106894;27;20031;-79
2023/07/17 10:25:29;;;;;;;24.27;22.95;;;25.30;41.40;;;;;;5093824;28;20555;-77
2023/07/17 10:28:01;;;;;;;19.55;18.48;;;25.20;42.40;;;;;;5103113;28;20036;-75
2023/07/17 10:30:26;;;;;;;19.42;18.23;;;25.60;47.90;;;;;;5103452;28;20064;-76
2023/07/17 10:33:07;;;;;;;26.15;24.75;;;26.10;46.10;;;;;;5106920;28;20105;-76
2023/07/17 10:35:58;;;;;;;31.02;29.48;;;26.50;41.10;;;;;;5102272;28;20027;-76
2023/07/17 10:38:34;;;;;;;31.95;30.15;;;26.60;42.30;;;;;;5112048;27;20105;-75
2023/07/17 10:41:12;;;;;;;44.35;42.22;;;26.30;42.50;;;;;;5090200;28;20158;-75
2023/07/17 10:44:00;;;;;;;29.88;28.23;;;26.10;39.70;;;;;;5110762;28;20532;-75
2023/07/17 10:46:29;;;;;;;43.75;41.65;;;26.70;41.80;;;;;;5102852;28;20645;-75
2023/07/17 10:49:16;;;;;;;30.73;29.33;;;26.70;38.90;;;;;;5087919;28;20032;-76
2023/07/17 10:51:44;;;;;;;21.00;19.50;;;26.80;44.10;;;;;;5105488;28;20382;-77
2023/07/17 10:54:15;;;;;;;46.58;44.63;;;26.80;46.90;;;;;;5090972;28;20028;-77
2023/07/17 10:56:46;;;;;;;49.08;46.58;;;27.20;40.30;;;;;;5076615;28;20024;-76
2023/07/17 10:59:13;;;;;;;26.67;25.13;;;27.40;39.60;;;;;;5089701;28;20110;-77
2023/07/17 11:01:39;;;;;;;75.25;72.30;;;28.00;41.80;;;;;;5102572;28;20035;-77
2023/07/17 11:04:07;;;;;;;34.22;32.60;;;27.80;37.00;;;;;;5107998;28;20692;-77
2023/07/17 11:06:33;;;;;;;52.95;50.75;;;27.90;41.30;;;;;;5105452;28;20367;-77
2023/07/17 11:08:59;;;;;;;65.32;62.88;;;28.50;38.10;;;;;;5104683;28;20039;-77
2023/07/17 11:11:25;;;;;;;67.65;64.68;;;29.20;34.40;;;;;;5102328;28;20104;-77
2023/07/17 11:13:54;;;;;;;93.78;90.18;;;29.30;36.50;;;;;;5100411;28;20020;-77
2023/07/17 11:16:22;;;;;;;170.48;164.00;;;29.00;37.50;;;;;;5103971;28;20028;-77
2023/07/17 11:18:52;;;;;;;111.68;107.28;;;29.50;35.90;;;;;;5103805;27;20123;-77
2023/07/17 11:21:23;;;;;;;331.30;318.70;;;30.20;37.60;;;;;;5089396;28;20036;-77
2023/07/17 11:23:50;;;;;;;393.70;378.30;;;29.70;32.60;;;;;;5108363;27;20428;-78
2023/07/17 11:26:18;;;;;;;269.90;258.25;;;30.20;29.80;;;;;;5105557;28;20038;-82
2023/07/17 11:28:48;;;;;;;1568.78;815.58;;;29.90;30.50;;;;;;5084979;28;20043;-77
2023/07/17 11:31:22;;;;;;;1999.90;999.90;;;30.40;30.00;;;;;;5101668;28;20456;-75
2023/07/17 11:34:09;;;;;;;420.33;402.77;;;29.50;29.60;;;;;;5101251;28;20027;-76
2023/07/17 11:36:46;;;;;;;280.10;268.08;;;29.80;29.50;;;;;;5103690;28;20043;-76
2023/07/17 11:39:15;;;;;;;1999.90;999.90;;;30.00;33.50;;;;;;5105203;28;20102;-76
2023/07/17 11:41:46;;;;;;;561.80;536.83;;;30.30;29.50;;;;;;5071124;28;20074;-76
2023/07/17 11:44:26;;;;;;;1999.90;999.90;;;30.20;28.90;;;;;;5108628;28;20043;-77
2023/07/17 11:47:01;;;;;;;;;;;31.10;29.10;;;;;;5107579;28;20024;-77
2023/07/17 11:49:28;;;;;;;1999.90;999.90;;;30.90;29.60;;;;;;5102940;28;20471;-77
2023/07/17 11:51:55;;;;;;;1999.90;999.90;;;31.30;28.00;;;;;;5106069;28;20040;-77
2023/07/17 11:54:20;;;;;;;1999.90;999.90;;;31.30;28.10;;;;;;5101016;28;20526;-77
2023/07/17 11:56:46;;;;;;;1999.90;999.90;;;31.00;26.40;;;;;;5103952;28;20055;-77
2023/07/17 11:59:20;;;;;;;1999.90;999.90;;;30.50;27.40;;;;;;5105849;28;20110;-77
2023/07/17 12:01:47;;;;;;;222.63;212.90;;;29.70;28.80;;;;;;5105548;28;20103;-77
2023/07/17 12:04:20;;;;;;;468.85;446.70;;;29.60;28.60;;;;;;5103373;28;20544;-77
2023/07/17 12:06:46;;;;;;;1999.90;999.90;;;29.60;31.90;;;;;;5108645;28;20032;-77
2023/07/17 12:09:12;;;;;;;1999.90;999.90;;;29.90;28.90;;;;;;5105813;28;20042;-77
2023/07/17 12:11:38;;;;;;;1999.90;999.90;;;29.60;28.50;;;;;;5103980;28;20109;-77
2023/07/17 12:14:04;;;;;;;1999.90;999.90;;;30.10;29.40;;;;;;5102675;28;20073;-77
2023/07/17 12:16:30;;;;;;;1999.90;999.90;;;30.90;27.70;;;;;;5084947;28;20043;-77
2023/07/17 12:18:55;;;;;;;1999.90;999.90;;;31.00;26.50;;;;;;5104579;28;20118;-77